Time;durP1;ratioP1;P1;durP2;ratioP2;P2;SDS_P1;SDS_P2;PMS_P1;PMS_P2;Temp;Humidity;BMP_temperature;BMP_pressure;BME280_temperature;BME280_humidity;BME280_pressure;Samples;Min_cycle;Max_cycle;Signal;HPM_P1;HPM_P2
2023/07/06 00:01:55;;;;;;;0.20;0.20;;;13.20;99.90;;;;;;5048126;28;20463;-78
2023/07/06 00:04:22;;;;;;;0.20;0.20;;;13.20;99.90;;;;;;5049407;28;20136;-79
2023/07/06 00:06:48;;;;;;;0.20;0.20;;;13.20;99.90;;;;;;5047006;28;20447;-79
2023/07/06 00:09:14;;;;;;;0.20;0.20;;;13.20;99.90;;;;;;5040709;28;20044;-79
2023/07/06 00:11:41;;;;;;;0.20;0.20;;;13.20;99.90;;;;;;5046606;28;20044;-80
2023/07/06 00:14:10;;;;;;;0.20;0.20;;;13.20;99.90;;;;;;5041899;28;20439;-78
2023/07/06 00:16:41;;;;;;;0.10;0.10;;;13.20;99.90;;;;;;5046923;28;20083;-78
2023/07/06 00:19:09;;;;;;;0.20;0.20;;;13.20;99.90;;;;;;5048391;28;20049;-79
2023/07/06 00:21:35;;;;;;;0.20;0.20;;;13.10;99.90;;;;;;5047474;28;20392;-78
2023/07/06 00:24:01;;;;;;;0.20;0.20;;;13.10;99.90;;;;;;5047580;28;20041;-77
2023/07/06 00:26:27;;;;;;;0.20;0.20;;;13.10;99.90;;;;;;5047248;28;20060;-78
2023/07/06 00:28:58;;;;;;;0.20;0.20;;;13.10;99.90;;;;;;5043944;28;20352;-78
2023/07/06 00:31:40;;;;;;;0.20;0.20;;;13.10;99.90;;;;;;5046759;28;20115;-78
2023/07/06 00:34:07;;;;;;;0.10;0.10;;;13.10;99.90;;;;;;5048215;28;20088;-78
2023/07/06 00:36:35;;;;;;;0.10;0.10;;;13.10;99.90;;;;;;5049255;28;20053;-77
2023/07/06 00:39:03;;;;;;;0.20;0.20;;;13.10;99.90;;;;;;5047483;28;20049;-78
2023/07/06 00:41:32;;;;;;;0.10;0.10;;;13.10;99.90;;;;;;5044269;28;20048;-77
2023/07/06 00:43:59;;;;;;;0.20;0.20;;;13.00;99.90;;;;;;5045138;28;20041;-77
2023/07/06 00:46:29;;;;;;;0.20;0.20;;;13.00;99.90;;;;;;5028671;28;20045;-78
2023/07/06 00:48:57;;;;;;;0.10;0.10;;;13.00;99.90;;;;;;5042629;28;20037;-78
2023/07/06 00:51:32;;;;;;;0.20;0.20;;;13.00;99.90;;;;;;5045301;28;20080;-78
2023/07/06 00:54:09;;;;;;;0.20;0.20;;;13.00;99.90;;;;;;5047223;28;20045;-77
2023/07/06 00:56:40;;;;;;;0.10;0.10;;;13.00;99.90;;;;;;5041219;28;20048;-78
2023/07/06 00:59:09;;;;;;;0.20;0.20;;;12.90;99.90;;;;;;5045404;28;20439;-78
2023/07/06 01:01:37;;;;;;;0.20;0.20;;;13.00;99.90;;;;;;5046808;28;20435;-78
2023/07/06 01:04:06;;;;;;;0.13;0.13;;;12.90;99.90;;;;;;5051322;28;20032;-78
2023/07/06 01:06:37;;;;;;;0.10;0.10;;;12.90;99.90;;;;;;5050208;28;20049;-78
2023/07/06 01:09:06;;;;;;;0.10;0.10;;;12.90;99.90;;;;;;5048357;28;20045;-78
2023/07/06 01:11:35;;;;;;;0.20;0.20;;;12.90;99.90;;;;;;5048907;28;20048;-78
2023/07/06 01:14:01;;;;;;;0.15;0.15;;;12.90;99.90;;;;;;5048831;28;20578;-78
2023/07/06 01:16:32;;;;;;;0.10;0.10;;;12.90;99.90;;;;;;5048823;28;20037;-77
2023/07/06 01:18:58;;;;;;;;;;;12.90;99.90;;;;;;5052058;28;20051;-78
2023/07/06 01:21:42;;;;;;;0.10;0.10;;;12.90;99.90;;;;;;5049268;28;20007;-77
2023/07/06 01:24:14;;;;;;;0.10;0.10;;;12.90;99.90;;;;;;5048250;28;20041;-78
2023/07/06 01:26:54;;;;;;;0.10;0.10;;;12.80;99.90;;;;;;5045651;28;20045;-78
2023/07/06 01:29:33;;;;;;;0.20;0.20;;;12.80;99.90;;;;;;5050309;28;20505;-78
2023/07/06 01:32:22;;;;;;;0.20;0.20;;;12.80;99.90;;;;;;5046031;28;20468;-77
2023/07/06 01:35:07;;;;;;;0.10;0.10;;;12.80;99.90;;;;;;5049124;28;20040;-77
2023/07/06 01:37:36;;;;;;;0.20;0.20;;;12.80;99.90;;;;;;5049036;28;20053;-78
2023/07/06 01:40:05;;;;;;;0.17;0.17;;;12.80;99.90;;;;;;5048771;28;20396;-78
2023/07/06 01:42:40;;;;;;;0.20;0.20;;;12.80;99.90;;;;;;5040059;28;20045;-78
2023/07/06 01:45:18;;;;;;;0.10;0.10;;;12.70;99.90;;;;;;5047346;28;20062;-78
2023/07/06 01:47:52;;;;;;;0.20;0.20;;;12.80;99.90;;;;;;5063497;28;20045;-78
2023/07/06 01:50:21;;;;;;;0.10;0.10;;;12.70;99.90;;;;;;5047599;28;20087;-77
2023/07/06 01:53:12;;;;;;;0.17;0.17;;;12.70;99.90;;;;;;5049142;28;20033;-77
2023/07/06 01:55:53;;;;;;;0.20;0.20;;;12.70;99.90;;;;;;5048797;28;20044;-77
2023/07/06 01:58:33;;;;;;;0.10;0.10;;;12.80;99.90;;;;;;5044240;28;20472;-78
2023/07/06 02:01:13;;;;;;;0.10;0.10;;;12.80;99.90;;;;;;5049991;28;20067;-78
2023/07/06 02:03:41;;;;;;;0.20;0.20;;;12.80;99.90;;;;;;5047261;28;20041;-78
2023/07/06 02:06:08;;;;;;;0.10;0.10;;;12.80;99.90;;;;;;5050709;28;20087;-77
2023/07/06 02:08:41;;;;;;;0.20;0.20;;;12.80;99.90;;;;;;5048825;28;20052;-77
2023/07/06 02:11:08;;;;;;;0.20;0.20;;;12.80;99.90;;;;;;5035209;28;20040;-77
2023/07/06 02:13:34;;;;;;;0.10;0.10;;;12.80;99.90;;;;;;5047961;28;20460;-77
2023/07/06 02:16:04;;;;;;;0.20;0.20;;;12.80;99.90;;;;;;5048102;28;20116;-77
2023/07/06 02:18:30;;;;;;;0.10;0.10;;;12.80;99.90;;;;;;5049862;28;20053;-78
2023/07/06 02:20:57;;;;;;;0.20;0.20;;;12.80;99.90;;;;;;5050015;28;20133;-77
2023/07/06 02:23:23;;;;;;;0.10;0.10;;;12.80;99.90;;;;;;5040234;28;20107;-77
2023/07/06 02:25:49;;;;;;;0.10;0.10;;;12.80;99.90;;;;;;5049063;28;20055;-77
2023/07/06 02:28:15;;;;;;;0.20;0.20;;;12.90;99.90;;;;;;5047080;28;20048;-77
2023/07/06 02:30:41;;;;;;;0.17;0.17;;;12.90;99.90;;;;;;5051938;28;20044;-77
2023/07/06 02:33:08;;;;;;;0.10;0.10;;;12.90;99.90;;;;;;5050071;28;20584;-78
2023/07/06 02:35:34;;;;;;;0.15;0.15;;;13.00;99.90;;;;;;5050095;28;20036;-77
2023/07/06 02:38:00;;;;;;;0.10;0.10;;;13.00;99.90;;;;;;5030739;28;20408;-78
2023/07/06 02:40:25;;;;;;;0.20;0.20;;;12.90;99.90;;;;;;5033285;28;20041;-78
2023/07/06 02:42:51;;;;;;;0.10;0.10;;;13.00;99.90;;;;;;5048135;28;20041;-77
2023/07/06 02:45:17;;;;;;;0.10;0.10;;;13.00;99.90;;;;;;5031932;28;20048;-77
2023/07/06 02:47:43;;;;;;;0.20;0.20;;;13.00;99.90;;;;;;5037618;28;20493;-77
2023/07/06 02:50:11;;;;;;;0.20;0.20;;;13.00;99.90;;;;;;5049371;28;20047;-77
2023/07/06 02:52:42;;;;;;;0.17;0.17;;;13.00;99.90;;;;;;5031967;28;20045;-77
2023/07/06 02:55:09;;;;;;;;;;;13.10;99.90;;;;;;5032321;28;20052;-78
2023/07/06 02:57:39;;;;;;;0.20;0.20;;;13.10;99.90;;;;;;5049243;28;19921;-77
2023/07/06 03:00:09;;;;;;;0.20;0.20;;;13.00;99.90;;;;;;5050617;28;20697;-78
2023/07/06 03:02:35;;;;;;;0.20;0.20;;;13.00;99.90;;;;;;5031089;28;20080;-78
2023/07/06 03:05:04;;;;;;;0.10;0.10;;;13.10;99.90;;;;;;5048849;28;20083;-78
2023/07/06 03:07:29;;;;;;;0.10;0.10;;;13.10;99.90;;;;;;5032971;28;20134;-77
2023/07/06 03:09:57;;;;;;;0.15;0.15;;;13.10;99.90;;;;;;5031243;28;20517;-78
2023/07/06 03:12:23;;;;;;;0.10;0.10;;;13.10;99.90;;;;;;5031632;28;20056;-77
2023/07/06 03:14:49;;;;;;;0.20;0.20;;;13.10;99.90;;;;;;5049461;28;20044;-78
2023/07/06 03:17:15;;;;;;;0.10;0.10;;;13.10;99.90;;;;;;5046513;28;20489;-79
2023/07/06 03:19:41;;;;;;;0.10;0.10;;;13.10;99.90;;;;;;5049384;28;20051;-78
2023/07/06 03:22:07;;;;;;;0.10;0.10;;;13.10;99.90;;;;;;5028831;28;20072;-84
2023/07/06 03:24:33;;;;;;;0.10;0.10;;;13.10;99.90;;;;;;5031374;28;20477;-83
2023/07/06 03:27:01;;;;;;;0.10;0.10;;;13.10;99.90;;;;;;5050231;28;20048;-85
2023/07/06 03:29:27;;;;;;;0.20;0.20;;;13.10;99.90;;;;;;5024977;28;20452;-83
2023/07/06 03:31:53;;;;;;;0.10;0.10;;;13.10;99.90;;;;;;5041719;28;20134;-84
2023/07/06 03:34:20;;;;;;;0.20;0.20;;;13.10;99.90;;;;;;5032745;28;20401;-84
2023/07/06 03:36:45;;;;;;;0.20;0.20;;;13.10;99.90;;;;;;5050045;28;20040;-83
2023/07/06 03:39:12;;;;;;;0.15;0.15;;;13.10;99.90;;;;;;5047274;28;20045;-84
2023/07/06 03:41:38;;;;;;;0.20;0.20;;;13.10;99.90;;;;;;5046487;28;20147;-85
2023/07/06 03:44:05;;;;;;;0.10;0.10;;;13.10;99.90;;;;;;5030899;28;20053;-83
2023/07/06 03:46:33;;;;;;;0.20;0.20;;;13.10;99.90;;;;;;5041260;28;20054;-83
2023/07/06 03:49:04;;;;;;;0.10;0.10;;;13.10;99.90;;;;;;5045204;28;20559;-83
2023/07/06 03:51:31;;;;;;;0.20;0.20;;;13.10;99.90;;;;;;5031388;28;20041;-84
2023/07/06 03:53:57;;;;;;;0.10;0.10;;;13.10;99.90;;;;;;5030614;28;20060;-84
2023/07/06 03:56:27;;;;;;;0.10;0.10;;;13.10;99.90;;;;;;5048010;28;20044;-84
2023/07/06 03:58:57;;;;;;;0.10;0.10;;;13.10;99.90;;;;;;5026825;28;20048;-84
2023/07/06 04:01:24;;;;;;;0.10;0.10;;;13.10;99.90;;;;;;5030144;28;20072;-84
2023/07/06 04:03:52;;;;;;;0.20;0.20;;;13.10;99.90;;;;;;5048277;28;20051;-83
2023/07/06 04:06:18;;;;;;;0.15;0.15;;;13.20;99.90;;;;;;5047153;28;20033;-84
2023/07/06 04:08:45;;;;;;;0.20;0.20;;;13.10;99.90;;;;;;5047346;28;20106;-84
2023/07/06 04:11:10;;;;;;;0.20;0.20;;;13.20;99.90;;;;;;5028647;28;20033;-83
2023/07/06 04:13:36;;;;;;;0.10;0.10;;;13.20;99.90;;;;;;5046762;28;20071;-84
2023/07/06 04:16:02;;;;;;;0.20;0.20;;;13.30;99.90;;;;;;5032885;28;20045;-83
2023/07/06 04:18:28;;;;;;;0.10;0.10;;;13.30;99.90;;;;;;5033923;28;20049;-84
2023/07/06 04:20:54;;;;;;;0.20;0.20;;;13.30;99.90;;;;;;5055525;28;20041;-84
2023/07/06 04:23:20;;;;;;;0.10;0.10;;;13.40;99.90;;;;;;5049838;28;20477;-84
2023/07/06 04:25:45;;;;;;;0.13;0.13;;;13.40;99.90;;;;;;5049168;28;20033;-84
2023/07/06 04:28:14;;;;;;;0.10;0.10;;;13.40;99.90;;;;;;5030665;28;20128;-84
2023/07/06 04:30:45;;;;;;;0.10;0.10;;;13.40;99.90;;;;;;5052837;28;20049;-84
2023/07/06 04:33:16;;;;;;;0.20;0.20;;;13.50;99.90;;;;;;5049413;28;20049;-84
2023/07/06 04:35:43;;;;;;;0.17;0.17;;;13.50;99.90;;;;;;5046930;28;20463;-84
2023/07/06 04:38:10;;;;;;;0.10;0.10;;;13.50;99.90;;;;;;5053981;28;20041;-83
2023/07/06 04:40:41;;;;;;;0.20;0.20;;;13.50;99.90;;;;;;5054641;28;20040;-84
2023/07/06 04:43:07;;;;;;;0.20;0.20;;;13.60;99.90;;;;;;5066070;28;20047;-84
2023/07/06 04:45:33;;;;;;;0.10;0.10;;;13.60;99.90;;;;;;5061164;28;20051;-83
2023/07/06 04:48:03;;;;;;;0.10;0.10;;;13.60;99.90;;;;;;5055191;28;20046;-82
2023/07/06 04:50:37;;;;;;;0.10;0.10;;;13.70;99.90;;;;;;5056781;28;20079;-84
2023/07/06 04:53:07;;;;;;;0.10;0.10;;;13.70;99.90;;;;;;5051314;28;20037;-84
2023/07/06 04:55:34;;;;;;;0.20;0.20;;;13.70;99.90;;;;;;5043980;28;20119;-84
2023/07/06 04:58:01;;;;;;;0.20;0.20;;;13.70;99.90;;;;;;5059740;28;20048;-83
2023/07/06 05:00:30;;;;;;;0.13;0.13;;;13.70;99.90;;;;;;5060006;28;20040;-83
2023/07/06 05:03:03;;;;;;;0.20;0.20;;;13.70;99.90;;;;;;5050487;28;20045;-83
2023/07/06 05:05:33;;;;;;;0.20;0.20;;;13.70;99.90;;;;;;5052397;28;20029;-84
2023/07/06 05:07:58;;;;;;;0.20;0.20;;;13.70;99.90;;;;;;5047703;28;20052;-83
2023/07/06 05:10:25;;;;;;;0.20;0.20;;;13.70;99.90;;;;;;5048506;28;20049;-84
2023/07/06 05:12:52;;;;;;;0.20;0.20;;;13.80;99.90;;;;;;5056735;28;20041;-84
2023/07/06 05:15:19;;;;;;;0.20;0.20;;;13.80;99.90;;;;;;5060796;28;20036;-84
2023/07/06 05:17:44;;;;;;;0.10;0.10;;;13.90;99.90;;;;;;5058875;28;20045;-83
2023/07/06 05:20:14;;;;;;;0.20;0.20;;;13.90;99.90;;;;;;5055281;28;20113;-84
2023/07/06 05:22:48;;;;;;;0.10;0.10;;;13.90;99.90;;;;;;5047029;28;20082;-84
2023/07/06 05:25:17;;;;;;;0.15;0.15;;;14.00;99.90;;;;;;5050458;28;20048;-83
2023/07/06 05:27:43;;;;;;;0.20;0.20;;;14.00;99.90;;;;;;5036226;28;20350;-84
2023/07/06 05:30:10;;;;;;;0.10;0.10;;;14.10;99.90;;;;;;5047742;28;20815;-84
2023/07/06 05:32:36;;;;;;;0.10;0.10;;;14.10;99.90;;;;;;5050487;28;20087;-85
2023/07/06 05:35:02;;;;;;;0.20;0.20;;;14.20;99.90;;;;;;5044306;28;20088;-84
2023/07/06 05:37:28;;;;;;;0.20;0.20;;;14.20;99.90;;;;;;5049476;28;20045;-84
2023/07/06 05:39:54;;;;;;;0.10;0.10;;;14.30;99.90;;;;;;5050382;28;20041;-83
2023/07/06 05:42:19;;;;;;;0.20;0.20;;;14.30;99.90;;;;;;5046618;28;20452;-83
2023/07/06 05:44:46;;;;;;;0.10;0.10;;;14.40;99.90;;;;;;5049145;28;20041;-84
2023/07/06 05:47:13;;;;;;;0.20;0.20;;;14.40;99.90;;;;;;5049518;28;20048;-84
2023/07/06 05:49:39;;;;;;;0.10;0.10;;;14.40;99.90;;;;;;5044050;28;20033;-84
2023/07/06 05:52:05;;;;;;;0.10;0.10;;;14.50;99.90;;;;;;5047994;28;20481;-83
2023/07/06 05:54:32;;;;;;;0.20;0.20;;;14.50;99.90;;;;;;5049437;28;20092;-84
2023/07/06 05:57:02;;;;;;;0.38;0.38;;;14.60;99.90;;;;;;5049672;28;20441;-84
2023/07/06 05:59:29;;;;;;;0.20;0.20;;;14.60;99.90;;;;;;5047081;28;20097;-84
2023/07/06 06:01:56;;;;;;;0.17;0.17;;;14.60;99.90;;;;;;5049575;28;20076;-84
2023/07/06 06:04:22;;;;;;;0.10;0.10;;;14.70;99.90;;;;;;5049411;28;20057;-85
2023/07/06 06:06:54;;;;;;;0.13;0.13;;;14.70;99.90;;;;;;5043849;28;20045;-84
2023/07/06 06:09:20;;;;;;;;;;;14.70;99.90;;;;;;5049635;28;20036;-84
2023/07/06 06:11:48;;;;;;;0.10;0.10;;;14.80;99.90;;;;;;5048355;28;20152;-84
2023/07/06 06:14:14;;;;;;;0.20;0.20;;;14.90;99.90;;;;;;5045841;28;20052;-84
2023/07/06 06:16:40;;;;;;;0.10;0.10;;;14.90;99.90;;;;;;5051283;28;20443;-83
2023/07/06 06:19:07;;;;;;;0.20;0.20;;;15.00;99.90;;;;;;5048607;28;20043;-85
2023/07/06 06:21:33;;;;;;;0.10;0.10;;;15.10;99.90;;;;;;5048653;28;20384;-84
2023/07/06 06:24:01;;;;;;;0.15;0.15;;;15.10;99.90;;;;;;5049362;28;20447;-84
2023/07/06 06:26:27;;;;;;;0.20;0.20;;;15.20;99.90;;;;;;5045900;28;20053;-83
2023/07/06 06:28:53;;;;;;;0.20;0.20;;;15.30;99.90;;;;;;5045637;28;20444;-85
2023/07/06 06:31:19;;;;;;;0.10;0.10;;;15.30;99.90;;;;;;5049920;28;20052;-83
2023/07/06 06:33:46;;;;;;;0.10;0.10;;;15.40;99.90;;;;;;5046161;28;20048;-83
2023/07/06 06:36:17;;;;;;;0.20;0.20;;;15.50;99.90;;;;;;5047683;28;20044;-84
2023/07/06 06:38:43;;;;;;;;;;;15.50;99.90;;;;;;5048993;28;20041;-83
2023/07/06 06:41:10;;;;;;;0.20;0.20;;;15.60;99.90;;;;;;5046764;28;20292;-84
2023/07/06 06:43:38;;;;;;;0.10;0.10;;;15.60;99.90;;;;;;5050009;28;20408;-82
2023/07/06 06:46:08;;;;;;;0.20;0.20;;;15.70;99.90;;;;;;5050362;28;20439;-84
2023/07/06 06:48:35;;;;;;;0.20;0.20;;;15.80;99.90;;;;;;5042347;28;20056;-82
2023/07/06 06:51:03;;;;;;;0.15;0.15;;;15.90;99.90;;;;;;5061493;28;20143;-83
2023/07/06 06:53:29;;;;;;;0.10;0.10;;;16.00;99.90;;;;;;5049756;28;20060;-85
2023/07/06 06:55:55;;;;;;;0.20;0.20;;;16.00;99.90;;;;;;5050189;28;20504;-84
2023/07/06 06:58:21;;;;;;;0.10;0.10;;;16.10;99.90;;;;;;5048969;28;20436;-84
2023/07/06 07:00:47;;;;;;;0.10;0.10;;;16.10;99.90;;;;;;5050292;28;20029;-84
2023/07/06 07:03:14;;;;;;;0.10;0.10;;;16.20;99.90;;;;;;5048588;28;20041;-84
2023/07/06 07:05:40;;;;;;;0.20;0.20;;;16.30;99.90;;;;;;5046341;28;20520;-83
2023/07/06 07:08:06;;;;;;;0.17;0.17;;;16.40;99.90;;;;;;5041486;28;20041;-82
2023/07/06 07:10:33;;;;;;;0.20;0.20;;;16.50;99.90;;;;;;5047292;28;20045;-83
2023/07/06 07:12:59;;;;;;;0.10;0.10;;;16.50;99.90;;;;;;5041295;28;20046;-81
2023/07/06 07:15:25;;;;;;;0.20;0.20;;;16.60;99.90;;;;;;5048254;28;20044;-82
2023/07/06 07:17:51;;;;;;;0.20;0.20;;;16.70;99.90;;;;;;5048575;28;20052;-81
2023/07/06 07:20:18;;;;;;;0.10;0.10;;;16.70;99.90;;;;;;5045094;28;20041;-81
2023/07/06 07:22:45;;;;;;;0.10;0.10;;;16.80;99.90;;;;;;5036977;28;20056;-81
2023/07/06 07:25:11;;;;;;;0.20;0.20;;;16.80;99.90;;;;;;5040790;28;20033;-83
2023/07/06 07:27:37;;;;;;;0.20;0.20;;;16.80;99.90;;;;;;5047329;28;20040;-83
2023/07/06 07:30:09;;;;;;;0.20;0.20;;;16.90;99.90;;;;;;5049123;28;20091;-81
2023/07/06 07:32:35;;;;;;;0.20;0.20;;;17.00;99.90;;;;;;5062008;28;20511;-82
2023/07/06 07:35:01;;;;;;;0.15;0.15;;;17.00;99.90;;;;;;5052141;28;20087;-82
2023/07/06 07:37:27;;;;;;;0.15;0.15;;;17.10;99.90;;;;;;5048511;28;20358;-81
2023/07/06 07:39:53;;;;;;;0.20;0.20;;;17.10;99.90;;;;;;5049635;28;20044;-82
2023/07/06 07:42:19;;;;;;;0.20;0.20;;;17.20;99.90;;;;;;5046718;28;20041;-82
2023/07/06 07:44:45;;;;;;;0.20;0.20;;;17.20;99.90;;;;;;5048467;28;20075;-82
2023/07/06 07:47:12;;;;;;;0.20;0.20;;;17.30;99.90;;;;;;5049620;28;20068;-82
2023/07/06 07:49:38;;;;;;;0.20;0.20;;;17.30;99.90;;;;;;5047287;28;20095;-81
2023/07/06 07:52:09;;;;;;;0.10;0.10;;;17.30;99.90;;;;;;5044365;28;20073;-82
2023/07/06 07:54:35;;;;;;;0.20;0.20;;;17.40;99.90;;;;;;5045537;28;20398;-82
2023/07/06 07:57:00;;;;;;;0.10;0.10;;;17.40;99.90;;;;;;5044241;28;20132;-81
2023/07/06 07:59:26;;;;;;;0.20;0.20;;;17.50;99.90;;;;;;5055734;28;20480;-81
2023/07/06 08:01:53;;;;;;;0.20;0.20;;;17.50;99.90;;;;;;5046308;28;20423;-82
2023/07/06 08:04:20;;;;;;;0.10;0.10;;;17.60;99.90;;;;;;5041702;28;20042;-82
2023/07/06 08:06:46;;;;;;;0.20;0.20;;;17.60;99.90;;;;;;5047440;28;20129;-81
2023/07/06 08:09:13;;;;;;;0.20;0.20;;;17.60;99.90;;;;;;5048887;28;20127;-81
2023/07/06 08:11:46;;;;;;;0.10;0.10;;;17.70;99.90;;;;;;5051298;28;20238;-81
2023/07/06 08:14:13;;;;;;;0.10;0.10;;;17.70;99.90;;;;;;5053131;28;20041;-81
2023/07/06 08:16:42;;;;;;;0.10;0.10;;;17.80;99.90;;;;;;5054245;28;20052;-80
2023/07/06 08:19:08;;;;;;;0.20;0.20;;;17.90;99.90;;;;;;5051847;28;20149;-80
2023/07/06 08:21:34;;;;;;;0.20;0.20;;;18.00;99.90;;;;;;5052660;28;20057;-81
2023/07/06 08:24:00;;;;;;;0.20;0.20;;;18.10;99.90;;;;;;5042820;28;20037;-82
2023/07/06 08:26:31;;;;;;;0.10;0.10;;;18.20;99.90;;;;;;5039559;28;20477;-82
2023/07/06 08:28:57;;;;;;;0.20;0.20;;;18.30;99.90;;;;;;5048808;28;20588;-82
2023/07/06 08:31:24;;;;;;;0.20;0.20;;;18.40;99.90;;;;;;5053973;28;20132;-80
2023/07/06 08:33:50;;;;;;;0.20;0.20;;;18.40;99.90;;;;;;5034959;28;20098;-81
2023/07/06 08:36:20;;;;;;;0.20;0.20;;;18.40;99.90;;;;;;5054227;28;20334;-80
2023/07/06 08:38:46;;;;;;;0.20;0.20;;;18.40;99.90;;;;;;5031065;28;20041;-81
2023/07/06 08:41:26;;;;;;;0.20;0.20;;;18.40;99.90;;;;;;5049620;28;20505;-80
2023/07/06 08:43:53;;;;;;;0.10;0.10;;;18.40;99.90;;;;;;5051295;28;20102;-81
2023/07/06 08:46:20;;;;;;;0.20;0.20;;;18.40;99.90;;;;;;5035928;28;20091;-81
2023/07/06 08:48:46;;;;;;;0.20;0.20;;;18.50;99.90;;;;;;5033228;28;20083;-81
2023/07/06 08:51:17;;;;;;;0.20;0.20;;;18.50;99.90;;;;;;5035772;28;20049;-80
2023/07/06 08:54:10;;;;;;;0.10;0.10;;;18.50;99.90;;;;;;5029483;28;20484;-81
2023/07/06 08:56:39;;;;;;;0.20;0.20;;;18.50;99.90;;;;;;5046439;28;20044;-81
2023/07/06 08:59:14;;;;;;;0.50;0.30;;;18.50;99.90;;;;;;5032582;28;20071;-81
2023/07/06 09:01:41;;;;;;;0.20;0.20;;;18.50;99.90;;;;;;5043192;28;20087;-80
2023/07/06 09:04:15;;;;;;;1.25;0.35;;;18.50;99.90;;;;;;5043771;28;20544;-81
2023/07/06 09:06:52;;;;;;;0.20;0.20;;;18.50;99.90;;;;;;5032232;28;20048;-80
2023/07/06 09:09:18;;;;;;;0.20;0.20;;;18.50;99.90;;;;;;5016243;28;20041;-81
2023/07/06 09:11:47;;;;;;;0.20;0.20;;;18.50;99.90;;;;;;5052805;28;20095;-81
2023/07/06 09:14:16;;;;;;;0.20;0.20;;;18.50;99.90;;;;;;5034281;28;20153;-81
2023/07/06 09:16:55;;;;;;;0.20;0.20;;;18.50;99.90;;;;;;5053413;28;20080;-82
2023/07/06 09:19:23;;;;;;;0.20;0.20;;;18.60;99.90;;;;;;5033990;28;20048;-81
2023/07/06 09:21:54;;;;;;;0.20;0.20;;;18.60;99.90;;;;;;5034964;28;20048;-82
2023/07/06 09:24:27;;;;;;;0.20;0.20;;;18.70;99.90;;;;;;5018936;28;20095;-80
2023/07/06 09:26:53;;;;;;;0.20;0.20;;;18.70;99.90;;;;;;5014235;28;20049;-81
2023/07/06 09:29:29;;;;;;;0.20;0.20;;;18.80;99.90;;;;;;5014315;28;20050;-81
2023/07/06 09:32:12;;;;;;;0.20;0.20;;;18.80;99.90;;;;;;5037181;28;20057;-81
2023/07/06 09:34:44;;;;;;;0.20;0.20;;;19.00;99.90;;;;;;5044405;28;20069;-81
2023/07/06 09:37:14;;;;;;;0.30;0.30;;;19.00;99.90;;;;;;5050359;28;20090;-80
2023/07/06 09:40:03;;;;;;;0.20;0.20;;;19.20;99.90;;;;;;5047867;28;20052;-80
2023/07/06 09:42:29;;;;;;;0.20;0.20;;;19.20;99.90;;;;;;5030789;28;20409;-79
2023/07/06 09:44:56;;;;;;;0.20;0.20;;;19.20;99.90;;;;;;5047420;28;20052;-79
2023/07/06 09:47:23;;;;;;;0.20;0.20;;;19.20;99.90;;;;;;5049551;28;20057;-79
2023/07/06 09:50:18;;;;;;;0.20;0.20;;;19.30;99.90;;;;;;5045174;28;20049;-79
2023/07/06 09:52:43;;;;;;;0.20;0.20;;;19.30;99.90;;;;;;5042523;28;20585;-79
2023/07/06 09:55:12;;;;;;;0.20;0.20;;;19.30;99.90;;;;;;5041811;28;20040;-80
2023/07/06 09:57:40;;;;;;;0.20;0.20;;;19.30;99.90;;;;;;5044659;28;20029;-78
2023/07/06 10:00:15;;;;;;;0.20;0.20;;;19.40;99.90;;;;;;5039237;28;20045;-81
2023/07/06 10:03:13;;;;;;;0.20;0.20;;;19.50;99.90;;;;;;5044374;28;20047;-79
2023/07/06 10:06:14;;;;;;;0.20;0.20;;;19.50;99.90;;;;;;5002681;28;20130;-80
2023/07/06 10:08:58;;;;;;;0.20;0.20;;;19.50;99.90;;;;;;4951377;28;20046;-80
2023/07/06 10:11:36;;;;;;;0.30;0.30;;;19.50;99.90;;;;;;5028079;28;20128;-79
2023/07/06 10:14:13;;;;;;;0.22;0.22;;;19.40;99.90;;;;;;5038774;28;20041;-81
2023/07/06 10:16:38;;;;;;;0.20;0.20;;;19.40;99.90;;;;;;5051257;28;20194;-81
2023/07/06 10:19:09;;;;;;;0.20;0.20;;;19.40;99.90;;;;;;5047108;28;20045;-81
2023/07/06 10:22:18;;;;;;;0.20;0.20;;;19.30;99.90;;;;;;5043034;28;20041;-82
2023/07/06 10:24:53;;;;;;;0.20;0.20;;;19.30;99.90;;;;;;5034125;28;20057;-82
2023/07/06 10:27:35;;;;;;;0.20;0.20;;;19.30;99.90;;;;;;5040216;28;20053;-81
2023/07/06 10:30:08;;;;;;;0.20;0.20;;;19.20;99.90;;;;;;5047815;28;20492;-81
2023/07/06 10:32:42;;;;;;;0.20;0.20;;;19.20;99.90;;;;;;5043173;28;20486;-81
2023/07/06 10:35:48;;;;;;;0.25;0.25;;;19.20;99.90;;;;;;5050173;28;20051;-81
2023/07/06 10:38:14;;;;;;;0.20;0.20;;;19.10;99.90;;;;;;4992818;28;20050;-82
2023/07/06 10:40:40;;;;;;;0.20;0.20;;;19.10;99.90;;;;;;5038427;28;20053;-82
2023/07/06 10:43:08;;;;;;;0.10;0.10;;;19.10;99.90;;;;;;5048344;28;20126;-82
2023/07/06 10:45:48;;;;;;;0.20;0.20;;;19.00;99.90;;;;;;5048345;28;20048;-83
2023/07/06 10:48:22;;;;;;;0.20;0.20;;;19.10;99.90;;;;;;5049398;28;20075;-83
2023/07/06 10:51:06;;;;;;;0.28;0.28;;;19.10;99.90;;;;;;5048249;28;20138;-83
2023/07/06 10:53:39;;;;;;;0.20;0.20;;;19.10;99.90;;;;;;5045030;28;20512;-81
2023/07/06 10:56:11;;;;;;;0.10;0.10;;;19.20;99.90;;;;;;5045834;28;20037;-81
2023/07/06 10:58:55;;;;;;;0.20;0.20;;;19.40;99.90;;;;;;5042600;28;20080;-82
2023/07/06 11:01:27;;;;;;;0.20;0.20;;;19.50;99.90;;;;;;5048663;28;20041;-81
2023/07/06 11:03:54;;;;;;;0.20;0.20;;;19.70;99.90;;;;;;5048165;28;20413;-82
2023/07/06 11:06:41;;;;;;;0.17;0.17;;;19.90;99.90;;;;;;5047930;28;20049;-82
2023/07/06 11:09:10;;;;;;;0.20;0.20;;;20.10;99.90;;;;;;5036182;28;20511;-82
2023/07/06 11:11:39;;;;;;;0.20;0.20;;;20.20;99.90;;;;;;5044822;28;20179;-82
2023/07/06 11:14:36;;;;;;;0.20;0.20;;;20.40;99.90;;;;;;5047516;28;20080;-83
2023/07/06 11:17:38;;;;;;;0.20;0.20;;;20.50;99.90;;;;;;5042199;28;20044;-82
2023/07/06 11:20:22;;;;;;;0.20;0.20;;;20.60;99.90;;;;;;5030950;28;20087;-82
2023/07/06 11:22:52;;;;;;;0.10;0.10;;;20.80;99.90;;;;;;5036382;28;20607;-83
2023/07/06 11:25:19;;;;;;;0.20;0.20;;;20.90;99.90;;;;;;5047623;28;20080;-82
2023/07/06 11:27:48;;;;;;;0.20;0.20;;;20.90;99.90;;;;;;5045718;28;20055;-82
2023/07/06 11:31:05;;;;;;;0.20;0.20;;;20.70;99.90;;;;;;5048045;28;20426;-82
2023/07/06 11:33:58;;;;;;;0.20;0.20;;;20.90;99.90;;;;;;5030039;28;20536;-85
2023/07/06 11:36:39;;;;;;;0.20;0.20;;;20.90;99.90;;;;;;5049775;28;20053;-82
2023/07/06 11:39:08;;;;;;;0.20;0.20;;;20.80;99.90;;;;;;5033200;28;20503;-83
2023/07/06 11:41:53;;;;;;;0.13;0.13;;;20.70;99.90;;;;;;5035881;28;20500;-83
2023/07/06 11:44:51;;;;;;;0.20;0.20;;;20.50;99.90;;;;;;5038584;28;20059;-82
2023/07/06 11:47:53;;;;;;;0.20;0.20;;;20.40;99.90;;;;;;5042531;28;20409;-81
2023/07/06 11:50:21;;;;;;;0.20;0.20;;;20.30;99.90;;;;;;5026267;28;20056;-82
2023/07/06 11:53:08;;;;;;;0.20;0.20;;;20.20;99.90;;;;;;5031975;28;20375;-83
2023/07/06 11:55:50;;;;;;;0.20;0.20;;;20.10;99.90;;;;;;5024721;28;20115;-83
2023/07/06 12:01:20;;;;;;;0.20;0.20;;;20.00;99.90;;;;;;5049460;28;20048;-81
2023/07/06 12:03:47;;;;;;;0.17;0.17;;;20.00;99.90;;;;;;5046748;28;20392;-83
2023/07/06 12:06:19;;;;;;;0.20;0.20;;;20.00;99.90;;;;;;5049067;28;20036;-83
2023/07/06 12:08:45;;;;;;;0.20;0.20;;;20.00;99.90;;;;;;5043437;28;20094;-83
2023/07/06 12:11:15;;;;;;;0.20;0.20;;;20.00;99.90;;;;;;5032591;28;20049;-82
2023/07/06 12:13:44;;;;;;;0.20;0.20;;;20.10;99.90;;;;;;5036630;28;20045;-82
2023/07/06 12:16:13;;;;;;;0.20;0.20;;;20.20;99.90;;;;;;5049374;28;20075;-83
2023/07/06 12:18:41;;;;;;;0.20;0.20;;;20.40;99.90;;;;;;5045217;28;20056;-82
2023/07/06 12:21:22;;;;;;;0.20;0.20;;;20.60;99.90;;;;;;5050171;28;20048;-82
2023/07/06 12:23:47;;;;;;;0.20;0.20;;;20.70;99.90;;;;;;5047601;28;20053;-82
2023/07/06 12:26:14;;;;;;;0.20;0.20;;;20.80;99.90;;;;;;5045393;28;20051;-82
2023/07/06 12:28:44;;;;;;;0.20;0.20;;;20.80;99.90;;;;;;5029489;28;20037;-82
2023/07/06 12:31:10;;;;;;;0.20;0.20;;;20.80;99.90;;;;;;5049728;28;20068;-82
2023/07/06 12:33:36;;;;;;;0.20;0.20;;;20.80;99.90;;;;;;5047547;28;20110;-82
2023/07/06 12:36:03;;;;;;;0.17;0.17;;;20.80;99.90;;;;;;5032009;28;20045;-84
2023/07/06 12:38:29;;;;;;;0.20;0.20;;;20.80;99.90;;;;;;5047438;28;20480;-83
2023/07/06 12:41:21;;;;;;;0.20;0.20;;;20.70;99.90;;;;;;5047943;28;20123;-83
2023/07/06 12:43:49;;;;;;;0.20;0.20;;;20.70;99.90;;;;;;5047435;28;20045;-83
2023/07/06 12:46:21;;;;;;;0.20;0.20;;;20.70;99.90;;;;;;5029373;28;20088;-83
2023/07/06 12:48:51;;;;;;;0.20;0.20;;;20.70;99.90;;;;;;5048849;28;20049;-83
2023/07/06 12:51:23;;;;;;;0.30;0.30;;;20.90;99.90;;;;;;5030895;28;20362;-82
2023/07/06 12:53:50;;;;;;;0.20;0.20;;;21.20;99.90;;;;;;5029892;28;20052;-82
2023/07/06 12:56:21;;;;;;;0.20;0.20;;;21.50;99.90;;;;;;5042971;28;20034;-81
2023/07/06 12:58:53;;;;;;;0.20;0.20;;;21.70;99.90;;;;;;5030078;28;20139;-81
2023/07/06 13:01:20;;;;;;;0.20;0.20;;;22.00;99.90;;;;;;5034008;28;20124;-82
2023/07/06 13:03:47;;;;;;;0.20;0.20;;;22.10;99.90;;;;;;5023662;28;20053;-83
2023/07/06 13:06:14;;;;;;;0.20;0.20;;;22.20;99.90;;;;;;5035456;28;20041;-83
2023/07/06 13:08:40;;;;;;;0.20;0.20;;;22.30;99.90;;;;;;5033551;28;20648;-83